createdAt,value
2023-05-21T00:00:24.799Z,1015.80
2023-05-21T00:01:24.709Z,1015.81
2023-05-21T00:02:24.733Z,1015.78
2023-05-21T00:03:24.921Z,1015.78
2023-05-21T00:04:24.679Z,1015.75
2023-05-21T00:05:24.684Z,1015.73
2023-05-21T00:06:24.782Z,1015.75
2023-05-21T00:07:24.636Z,1015.75
2023-05-21T00:08:24.629Z,1015.73
2023-05-21T00:09:24.599Z,1015.73
2023-05-21T00:10:24.690Z,1015.73
2023-05-21T00:11:24.599Z,1015.74
2023-05-21T00:12:24.588Z,1015.71
2023-05-21T00:13:24.550Z,1015.73
2023-05-21T00:14:24.609Z,1015.70
2023-05-21T00:15:24.552Z,1015.67
2023-05-21T00:16:24.554Z,1015.66
2023-05-21T00:17:24.508Z,1015.67
2023-05-21T00:18:24.485Z,1015.69
2023-05-21T00:19:24.743Z,1015.67
2023-05-21T00:20:24.501Z,1015.67
2023-05-21T00:21:24.446Z,1015.64
2023-05-21T00:22:24.433Z,1015.66
2023-05-21T00:23:24.423Z,1015.63
2023-05-21T00:24:24.442Z,1015.58
2023-05-21T00:25:24.422Z,1015.60
2023-05-21T00:26:24.384Z,1015.56
2023-05-21T00:27:24.388Z,1015.55
2023-05-21T00:28:24.344Z,1015.56
2023-05-21T00:29:24.380Z,1015.60
2023-05-21T00:30:24.324Z,1015.53
2023-05-21T00:31:24.543Z,1015.57
2023-05-21T00:32:24.638Z,1015.61
2023-05-21T00:33:24.321Z,1015.57
2023-05-21T00:34:24.470Z,1015.56
2023-05-21T00:35:24.256Z,1015.54
2023-05-21T00:36:24.248Z,1015.50
2023-05-21T00:37:24.267Z,1015.51
2023-05-21T00:38:24.235Z,1015.52
2023-05-21T00:39:24.241Z,1015.46
2023-05-21T00:41:40.805Z,1015.41
2023-05-21T00:42:41.793Z,1015.43
2023-05-21T00:43:41.792Z,1015.39
2023-05-21T00:44:41.766Z,1015.34
2023-05-21T00:45:41.783Z,1015.37
2023-05-21T00:46:41.772Z,1015.35
2023-05-21T00:47:41.793Z,1015.35
2023-05-21T00:48:41.744Z,1015.35
2023-05-21T00:49:41.710Z,1015.36
2023-05-21T00:50:41.694Z,1015.35
2023-05-21T00:51:41.680Z,1015.35
2023-05-21T00:52:41.699Z,1015.36
2023-05-21T00:53:41.679Z,1015.31
2023-05-21T00:54:41.646Z,1015.32
2023-05-21T00:55:41.634Z,1015.30
2023-05-21T00:56:41.635Z,1015.31
2023-05-21T00:57:41.707Z,1015.31
2023-05-21T00:58:41.596Z,1015.27
2023-05-21T00:59:41.568Z,1015.26
2023-05-21T01:00:41.558Z,1015.30
2023-05-21T01:01:41.651Z,1015.28
2023-05-21T01:02:41.654Z,1015.26
2023-05-21T01:03:41.564Z,1015.27
2023-05-21T01:04:41.511Z,1015.24
2023-05-21T01:05:41.494Z,1015.25
2023-05-21T01:06:41.852Z,1015.24
2023-05-21T01:07:41.894Z,1015.20
2023-05-21T01:08:41.456Z,1015.17
2023-05-21T01:09:41.452Z,1015.18
2023-05-21T01:10:41.435Z,1015.18
2023-05-21T01:11:41.431Z,1015.18
2023-05-21T01:12:41.418Z,1015.19
2023-05-21T01:13:41.410Z,1015.20
2023-05-21T01:14:41.394Z,1015.16
2023-05-21T01:15:41.368Z,1015.17
2023-05-21T01:16:41.433Z,1015.13
2023-05-21T01:17:41.408Z,1015.16
2023-05-21T01:18:41.409Z,1015.14
2023-05-21T01:19:41.318Z,1015.17
2023-05-21T01:20:41.335Z,1015.14
2023-05-21T01:21:41.330Z,1015.15
2023-05-21T01:22:41.285Z,1015.14
2023-05-21T01:23:41.252Z,1015.15
2023-05-21T01:24:41.242Z,1015.14
2023-05-21T01:25:41.261Z,1015.12
2023-05-21T01:26:41.248Z,1015.17
2023-05-21T01:27:41.202Z,1015.17
2023-05-21T01:28:41.220Z,1015.18
2023-05-21T01:29:41.197Z,1015.16
2023-05-21T01:30:41.208Z,1015.17
2023-05-21T01:31:41.170Z,1015.11
2023-05-21T01:32:41.236Z,1015.16
2023-05-21T01:33:41.177Z,1015.16
2023-05-21T01:34:41.148Z,1015.14
2023-05-21T01:35:41.130Z,1015.07
2023-05-21T01:36:41.098Z,1015.09
2023-05-21T01:37:41.090Z,1015.11
2023-05-21T01:38:41.073Z,1015.05
2023-05-21T01:39:41.073Z,1015.08
2023-05-21T01:40:41.078Z,1015.08
2023-05-21T01:41:41.030Z,1015.06
2023-05-21T01:42:41.015Z,1015.07
2023-05-21T01:43:40.995Z,1015.06
2023-05-21T01:44:41.039Z,1015.07
2023-05-21T01:45:40.969Z,1015.01
2023-05-21T01:46:41.003Z,1015.06
2023-05-21T01:47:40.974Z,1015.04
2023-05-21T01:48:40.943Z,1015.04
2023-05-21T01:49:40.942Z,1015.01
2023-05-21T01:50:40.919Z,1015.03
2023-05-21T01:51:40.889Z,1015.01
2023-05-21T01:52:40.888Z,1014.97
2023-05-21T01:53:40.865Z,1015.06
2023-05-21T01:54:40.869Z,1015.02
2023-05-21T01:55:40.847Z,1015.00
2023-05-21T01:56:40.832Z,1014.97
2023-05-21T01:57:40.819Z,1015.05
2023-05-21T01:58:40.825Z,1014.99
2023-05-21T01:59:40.804Z,1015.04
2023-05-21T02:00:40.799Z,1014.95
2023-05-21T02:01:40.812Z,1014.97
2023-05-21T02:02:40.813Z,1014.95
2023-05-21T02:03:40.820Z,1014.97
2023-05-21T02:04:40.750Z,1014.97
2023-05-21T02:05:40.708Z,1014.93
2023-05-21T02:06:40.698Z,1015.00
2023-05-21T02:07:40.722Z,1014.94
2023-05-21T02:08:40.715Z,1014.92
2023-05-21T02:09:40.676Z,1014.91
2023-05-21T02:10:40.664Z,1014.95
2023-05-21T02:11:40.643Z,1014.96
2023-05-21T02:12:40.619Z,1014.90
2023-05-21T02:13:40.655Z,1014.95
2023-05-21T02:14:40.610Z,1014.92
2023-05-21T02:15:40.603Z,1014.94
2023-05-21T02:16:40.656Z,1015.00
2023-05-21T02:17:40.621Z,1015.00
2023-05-21T02:18:40.576Z,1015.00
2023-05-21T02:19:40.529Z,1015.01
2023-05-21T02:20:40.523Z,1014.99
2023-05-21T02:21:40.514Z,1015.00
2023-05-21T02:22:40.529Z,1015.01
2023-05-21T02:23:40.490Z,1015.00
2023-05-21T02:24:40.507Z,1014.97
2023-05-21T02:25:40.459Z,1015.00
2023-05-21T02:26:40.444Z,1015.00
2023-05-21T02:27:40.486Z,1014.95
2023-05-21T02:28:40.433Z,1014.94
2023-05-21T02:29:40.405Z,1014.97
2023-05-21T02:30:40.405Z,1014.95
2023-05-21T02:31:40.370Z,1014.95
2023-05-21T02:32:40.470Z,1014.96
2023-05-21T02:33:40.402Z,1014.94
2023-05-21T02:34:40.353Z,1014.95
2023-05-21T02:35:40.325Z,1014.96
2023-05-21T02:36:40.360Z,1014.95
2023-05-21T02:37:40.357Z,1014.95
2023-05-21T02:38:40.291Z,1014.97
2023-05-21T02:39:40.305Z,1014.99
2023-05-21T02:40:40.268Z,1015.00
2023-05-21T02:41:40.247Z,1014.97
2023-05-21T02:42:40.491Z,1014.99
2023-05-21T02:43:40.217Z,1014.94
2023-05-21T02:44:40.228Z,1014.99
2023-05-21T02:45:40.250Z,1015.00
2023-05-21T02:46:40.200Z,1014.98
2023-05-21T02:47:40.193Z,1015.01
2023-05-21T02:48:40.178Z,1015.02
2023-05-21T02:49:40.152Z,1015.02
2023-05-21T02:50:40.160Z,1015.04
2023-05-21T02:51:40.143Z,1015.02
2023-05-21T02:52:40.098Z,1015.01
2023-05-21T02:53:40.096Z,1015.01
2023-05-21T02:54:40.080Z,1014.97
2023-05-21T02:55:40.088Z,1014.99
2023-05-21T02:56:40.065Z,1014.96
2023-05-21T02:57:40.038Z,1014.97
2023-05-21T02:58:40.025Z,1014.99
2023-05-21T02:59:40.026Z,1014.94
2023-05-21T03:00:40.026Z,1014.97
2023-05-21T03:01:40.010Z,1014.98
2023-05-21T03:02:40.084Z,1014.96
2023-05-21T03:03:40.010Z,1014.96
2023-05-21T03:04:39.977Z,1014.99
2023-05-21T03:05:39.958Z,1014.97
2023-05-21T03:06:39.924Z,1014.97
2023-05-21T03:07:39.910Z,1014.99
2023-05-21T03:08:39.844Z,1014.95
2023-05-21T03:09:39.851Z,1014.97
2023-05-21T03:10:39.809Z,1014.92
2023-05-21T03:11:39.783Z,1014.87
2023-05-21T03:12:39.772Z,1014.90
2023-05-21T03:13:39.784Z,1014.88
2023-05-21T03:14:39.766Z,1014.88
2023-05-21T03:15:39.858Z,1014.88
2023-05-21T03:16:39.799Z,1014.89
2023-05-21T03:17:39.841Z,1014.86
2023-05-21T03:18:39.700Z,1014.92
2023-05-21T03:19:39.710Z,1014.87
2023-05-21T03:20:39.678Z,1014.84
2023-05-21T03:21:39.665Z,1014.81
2023-05-21T03:22:39.667Z,1014.83
2023-05-21T03:23:39.626Z,1014.80
2023-05-21T03:24:39.674Z,1014.79
2023-05-21T03:25:39.620Z,1014.83
2023-05-21T03:26:39.614Z,1014.82
2023-05-21T03:27:39.584Z,1014.82
2023-05-21T03:28:39.634Z,1014.77
2023-05-21T03:29:39.587Z,1014.78
2023-05-21T03:30:39.555Z,1014.76
2023-05-21T03:31:39.567Z,1014.79
2023-05-21T03:32:39.586Z,1014.78
2023-05-21T03:33:39.524Z,1014.74
2023-05-21T03:34:39.710Z,1014.77
2023-05-21T03:35:39.485Z,1014.81
2023-05-21T03:36:39.466Z,1014.80
2023-05-21T03:37:39.450Z,1014.79
2023-05-21T03:38:39.439Z,1014.80
2023-05-21T03:39:39.453Z,1014.82
2023-05-21T03:40:39.420Z,1014.79
2023-05-21T03:41:39.388Z,1014.80
2023-05-21T03:42:39.457Z,1014.77
2023-05-21T03:43:39.368Z,1014.79
2023-05-21T03:44:39.381Z,1014.79
2023-05-21T03:45:40.875Z,1014.75
2023-05-21T03:46:39.386Z,1014.77
2023-05-21T03:47:39.330Z,1014.79
2023-05-21T03:48:39.337Z,1014.77
2023-05-21T03:49:39.321Z,1014.78
2023-05-21T03:50:39.284Z,1014.80
2023-05-21T03:51:39.258Z,1014.84
2023-05-21T03:52:39.259Z,1014.83
2023-05-21T03:53:39.289Z,1014.82
2023-05-21T03:54:39.256Z,1014.82
2023-05-21T03:55:39.221Z,1014.83
2023-05-21T03:56:39.230Z,1014.83
2023-05-21T03:57:39.226Z,1014.79
2023-05-21T03:58:39.181Z,1014.82
2023-05-21T03:59:39.186Z,1014.83
2023-05-21T04:00:39.188Z,1014.80
2023-05-21T04:01:39.218Z,1014.83
2023-05-21T04:02:39.202Z,1014.81
2023-05-21T04:03:40.794Z,1014.82
2023-05-21T04:04:39.129Z,1014.80
2023-05-21T04:05:39.095Z,1014.83
2023-05-21T04:06:39.108Z,1014.81
2023-05-21T04:07:39.076Z,1014.82
2023-05-21T04:08:39.085Z,1014.82
2023-05-21T04:09:39.029Z,1014.84
2023-05-21T04:10:39.050Z,1014.84
2023-05-21T04:11:39.003Z,1014.79
2023-05-21T04:12:39.049Z,1014.83
2023-05-21T04:13:38.990Z,1014.84
2023-05-21T04:14:38.987Z,1014.82
2023-05-21T04:15:39.194Z,1014.78
2023-05-21T04:16:39.025Z,1014.81
2023-05-21T04:17:39.041Z,1014.83
2023-05-21T04:18:38.923Z,1014.84
2023-05-21T04:19:38.955Z,1014.81
2023-05-21T04:20:38.910Z,1014.84
2023-05-21T04:21:38.904Z,1014.84
2023-05-21T04:22:38.883Z,1014.82
2023-05-21T04:23:38.859Z,1014.84
2023-05-21T04:24:38.844Z,1014.86
2023-05-21T04:25:38.838Z,1014.89
2023-05-21T04:26:38.835Z,1014.88
2023-05-21T04:27:38.816Z,1014.87
2023-05-21T04:28:38.827Z,1014.87
2023-05-21T04:29:38.759Z,1014.89
2023-05-21T04:30:38.780Z,1014.88
2023-05-21T04:31:38.800Z,1014.95
2023-05-21T04:32:38.836Z,1014.91
2023-05-21T04:33:38.723Z,1014.97
2023-05-21T04:34:38.730Z,1014.95
2023-05-21T04:35:38.711Z,1014.91
2023-05-21T04:36:38.736Z,1014.95
2023-05-21T04:37:38.661Z,1014.96
2023-05-21T04:38:38.675Z,1014.93
2023-05-21T04:39:38.639Z,1014.92
2023-05-21T04:40:38.676Z,1014.94
2023-05-21T04:41:38.622Z,1014.98
2023-05-21T04:42:38.589Z,1014.96
2023-05-21T04:43:38.592Z,1015.04
2023-05-21T04:44:38.577Z,1014.98
2023-05-21T04:45:38.748Z,1015.00
2023-05-21T04:46:40.328Z,1015.03
2023-05-21T04:47:38.564Z,1014.99
2023-05-21T04:48:38.528Z,1015.00
2023-05-21T04:49:38.538Z,1014.92
2023-05-21T04:50:38.501Z,1014.98
2023-05-21T04:51:38.493Z,1014.93
2023-05-21T04:52:38.462Z,1014.98
2023-05-21T04:53:38.490Z,1014.93
2023-05-21T04:54:38.476Z,1014.97
2023-05-21T04:55:38.891Z,1014.95
2023-05-21T04:56:38.449Z,1014.98
2023-05-21T04:57:38.411Z,1014.96
2023-05-21T04:58:38.403Z,1014.94
2023-05-21T04:59:38.411Z,1014.98
2023-05-21T05:00:38.400Z,1014.95
2023-05-21T05:01:38.422Z,1014.96
2023-05-21T05:02:38.386Z,1014.93
2023-05-21T05:03:38.365Z,1014.93
2023-05-21T05:04:38.351Z,1014.90
2023-05-21T05:05:38.669Z,1014.88
2023-05-21T05:06:38.287Z,1014.94
2023-05-21T05:07:38.320Z,1014.94
2023-05-21T05:08:38.269Z,1014.96
2023-05-21T05:09:38.269Z,1015.02
2023-05-21T05:10:38.273Z,1014.95
2023-05-21T05:11:38.244Z,1014.95
2023-05-21T05:12:38.221Z,1014.95
2023-05-21T05:13:38.258Z,1014.98
2023-05-21T05:14:38.190Z,1015.00
2023-05-21T05:15:38.382Z,1014.97
2023-05-21T05:16:38.200Z,1014.97
2023-05-21T05:17:38.168Z,1014.95
2023-05-21T05:18:38.171Z,1014.94
2023-05-21T05:19:38.125Z,1014.95
2023-05-21T05:20:38.102Z,1014.97
2023-05-21T05:21:38.096Z,1014.98
2023-05-21T05:22:38.097Z,1014.96
2023-05-21T05:23:38.089Z,1014.93
2023-05-21T05:24:38.062Z,1014.94
2023-05-21T05:25:38.223Z,1014.90
2023-05-21T05:26:38.017Z,1014.95
2023-05-21T05:27:38.620Z,1014.94
2023-05-21T05:28:38.015Z,1014.96
2023-05-21T05:29:38.008Z,1014.97
2023-05-21T05:30:38.035Z,1015.01
2023-05-21T05:31:37.969Z,1014.98
2023-05-21T05:32:38.176Z,1014.98
2023-05-21T05:33:37.963Z,1014.96
2023-05-21T05:34:37.951Z,1014.93
2023-05-21T05:35:38.124Z,1014.98
2023-05-21T05:36:37.900Z,1014.99
2023-05-21T05:37:37.916Z,1015.00
2023-05-21T05:38:37.870Z,1015.04
2023-05-21T05:39:37.872Z,1014.99
2023-05-21T05:40:37.851Z,1015.01
2023-05-21T05:41:37.853Z,1015.00
2023-05-21T05:42:37.819Z,1015.05
2023-05-21T05:43:37.810Z,1015.05
2023-05-21T05:44:37.798Z,1015.04
2023-05-21T05:45:38.113Z,1015.08
2023-05-21T05:46:38.029Z,1015.03
2023-05-21T05:47:37.789Z,1015.11
2023-05-21T05:48:37.761Z,1015.05
2023-05-21T05:49:37.730Z,1015.06
2023-05-21T05:50:37.728Z,1015.06
2023-05-21T05:51:37.733Z,1015.10
2023-05-21T05:52:37.717Z,1015.10
2023-05-21T05:53:37.689Z,1015.07
2023-05-21T05:54:37.666Z,1015.09
2023-05-21T05:55:38.007Z,1015.07
2023-05-21T05:56:37.659Z,1015.06
2023-05-21T05:57:37.633Z,1015.05
2023-05-21T05:58:37.632Z,1015.07
2023-05-21T05:59:37.645Z,1015.03
2023-05-21T06:00:37.590Z,1015.01
2023-05-21T06:01:37.580Z,1014.98
2023-05-21T06:02:37.672Z,1014.97
2023-05-21T06:03:37.666Z,1014.99
2023-05-21T06:04:37.550Z,1015.04
2023-05-21T06:05:37.930Z,1014.99
2023-05-21T06:06:37.527Z,1015.00
2023-05-21T06:07:37.506Z,1014.98
2023-05-21T06:08:38.272Z,1014.99
2023-05-21T06:09:37.492Z,1014.99
2023-05-21T06:10:37.455Z,1014.99
2023-05-21T06:11:37.433Z,1015.01
2023-05-21T06:12:37.436Z,1015.03
2023-05-21T06:13:37.413Z,1015.09
2023-05-21T06:14:37.421Z,1015.07
2023-05-21T06:15:37.715Z,1015.10
2023-05-21T06:16:37.479Z,1015.08
2023-05-21T06:17:37.397Z,1015.07
2023-05-21T06:18:37.358Z,1015.11
2023-05-21T06:19:37.370Z,1015.14
2023-05-21T06:20:37.348Z,1015.13
2023-05-21T06:21:37.326Z,1015.08
2023-05-21T06:22:37.310Z,1015.15
2023-05-21T06:23:37.323Z,1015.18
2023-05-21T06:24:37.289Z,1015.15
2023-05-21T06:25:37.585Z,1015.13
2023-05-21T06:26:37.239Z,1015.15
2023-05-21T06:27:37.245Z,1015.21
2023-05-21T06:28:37.238Z,1015.15
2023-05-21T06:29:37.239Z,1015.25
2023-05-21T06:30:37.185Z,1015.18
2023-05-21T06:31:37.184Z,1015.19
2023-05-21T06:32:37.198Z,1015.16
2023-05-21T06:33:37.211Z,1015.14
2023-05-21T06:34:37.175Z,1015.14
2023-05-21T06:35:37.585Z,1015.16
2023-05-21T06:36:37.115Z,1015.14
2023-05-21T06:37:37.091Z,1015.13
2023-05-21T06:38:37.129Z,1015.16
2023-05-21T06:39:37.084Z,1015.17
2023-05-21T06:40:37.057Z,1015.17
2023-05-21T06:42:47.683Z,1015.17
2023-05-21T06:43:48.669Z,1015.08
2023-05-21T06:44:48.659Z,1015.09
2023-05-21T06:45:48.645Z,1015.07
2023-05-21T06:46:48.627Z,1015.04
2023-05-21T06:47:48.638Z,1015.05
2023-05-21T06:48:48.587Z,1015.06
2023-05-21T06:49:48.584Z,1015.07
2023-05-21T06:50:48.568Z,1015.10
2023-05-21T06:51:48.601Z,1015.10
2023-05-21T06:52:48.572Z,1015.11
2023-05-21T06:53:48.524Z,1015.09
2023-05-21T06:54:48.521Z,1015.03
2023-05-21T06:55:48.529Z,1015.09
2023-05-21T06:56:48.556Z,1015.08
2023-05-21T06:57:48.477Z,1015.08
2023-05-21T06:58:48.463Z,1015.08
2023-05-21T06:59:48.440Z,1015.13
2023-05-21T07:00:48.497Z,1015.11
2023-05-21T07:01:48.523Z,1015.10
2023-05-21T07:02:48.586Z,1015.10
2023-05-21T07:03:48.413Z,1015.11
2023-05-21T07:04:48.384Z,1015.09
2023-05-21T07:05:48.404Z,1015.09
2023-05-21T07:06:48.382Z,1015.13
2023-05-21T07:07:48.360Z,1015.19
2023-05-21T07:08:48.329Z,1015.11
2023-05-21T07:09:48.315Z,1015.12
2023-05-21T07:10:48.312Z,1015.10
2023-05-21T07:11:48.341Z,1015.11
2023-05-21T07:12:48.277Z,1015.12
2023-05-21T07:13:48.257Z,1015.12
2023-05-21T07:14:48.264Z,1015.12
2023-05-21T07:15:48.243Z,1015.13
2023-05-21T07:16:48.291Z,1015.17
2023-05-21T07:17:48.255Z,1015.19
2023-05-21T07:18:48.231Z,1015.21
2023-05-21T07:19:48.181Z,1015.17
2023-05-21T07:20:48.185Z,1015.17
2023-05-21T07:21:48.154Z,1015.17
2023-05-21T07:22:48.143Z,1015.16
2023-05-21T07:23:48.125Z,1015.14
2023-05-21T07:24:48.158Z,1015.17
2023-05-21T07:25:48.141Z,1015.11
2023-05-21T07:26:48.117Z,1015.11
2023-05-21T07:27:48.076Z,1015.17
2023-05-21T07:28:48.115Z,1015.12
2023-05-21T07:29:48.051Z,1015.12
2023-05-21T07:30:48.138Z,1015.08
2023-05-21T07:31:48.065Z,1015.10
2023-05-21T07:32:48.089Z,1015.12
2023-05-21T07:33:47.993Z,1015.08
2023-05-21T07:34:47.996Z,1015.11
2023-05-21T07:35:47.991Z,1015.15
2023-05-21T07:36:47.974Z,1015.10
2023-05-21T07:37:48.053Z,1015.10
2023-05-21T07:38:47.953Z,1015.14
2023-05-21T07:39:47.977Z,1015.10
2023-05-21T07:40:47.936Z,1015.11
2023-05-21T07:41:47.908Z,1015.11
2023-05-21T07:42:47.896Z,1015.09
2023-05-21T07:43:47.910Z,1015.11
2023-05-21T07:44:47.879Z,1015.09
2023-05-21T07:45:47.862Z,1015.10
2023-05-21T07:46:47.996Z,1015.08
2023-05-21T07:47:47.879Z,1015.08
2023-05-21T07:48:47.810Z,1015.06
2023-05-21T07:49:47.823Z,1015.07
2023-05-21T07:50:47.791Z,1015.01
2023-05-21T07:51:47.773Z,1015.00
2023-05-21T07:52:47.841Z,1015.02
2023-05-21T07:53:47.743Z,1014.96
2023-05-21T07:54:47.785Z,1014.99
2023-05-21T07:55:47.831Z,1014.96
2023-05-21T07:56:47.717Z,1014.98
2023-05-21T07:57:47.707Z,1014.96
2023-05-21T07:58:47.712Z,1014.94
2023-05-21T07:59:47.702Z,1014.89
2023-05-21T08:00:47.667Z,1014.90
2023-05-21T08:01:47.663Z,1014.91
2023-05-21T08:02:47.779Z,1014.93
2023-05-21T08:03:47.841Z,1014.93
2023-05-21T08:04:47.677Z,1014.88
2023-05-21T08:05:47.603Z,1014.86
2023-05-21T08:06:47.584Z,1014.87
2023-05-21T08:07:47.577Z,1014.86
2023-05-21T08:08:47.593Z,1014.91
2023-05-21T08:09:47.536Z,1014.88
2023-05-21T08:10:47.604Z,1014.88
2023-05-21T08:11:47.525Z,1014.91
2023-05-21T08:12:47.523Z,1014.93
2023-05-21T08:13:47.553Z,1014.98
2023-05-21T08:14:47.485Z,1014.98
2023-05-21T08:15:47.518Z,1014.97
2023-05-21T08:16:47.605Z,1014.96
2023-05-21T08:17:47.489Z,1014.94
2023-05-21T08:18:47.463Z,1014.97
2023-05-21T08:19:47.409Z,1014.93
2023-05-21T08:20:47.416Z,1014.90
2023-05-21T08:21:47.391Z,1014.92
2023-05-21T08:22:47.427Z,1014.98
2023-05-21T08:23:47.372Z,1014.99
2023-05-21T08:24:47.353Z,1014.98
2023-05-21T08:25:47.326Z,1014.95
2023-05-21T08:26:47.340Z,1014.98
2023-05-21T08:27:47.318Z,1014.98
2023-05-21T08:28:47.305Z,1014.97
2023-05-21T08:29:47.289Z,1014.95
2023-05-21T08:30:47.280Z,1015.00
2023-05-21T08:31:47.284Z,1014.89
2023-05-21T08:32:47.290Z,1014.91
2023-05-21T08:33:47.244Z,1014.87
2023-05-21T08:34:47.252Z,1014.85
2023-05-21T08:35:47.197Z,1014.89
2023-05-21T08:36:47.211Z,1014.86
2023-05-21T08:37:47.169Z,1014.84
2023-05-21T08:38:47.181Z,1014.87
2023-05-21T08:39:47.165Z,1014.84
2023-05-21T08:40:47.164Z,1014.87
2023-05-21T08:41:47.143Z,1014.87
2023-05-21T08:42:47.118Z,1014.90
2023-05-21T08:43:49.876Z,1014.88
2023-05-21T08:44:47.091Z,1014.91
2023-05-21T08:45:47.106Z,1014.92
2023-05-21T08:46:47.075Z,1014.88
2023-05-21T08:47:47.086Z,1014.89
2023-05-21T08:48:47.061Z,1014.87
2023-05-21T08:49:47.014Z,1014.88
2023-05-21T08:50:47.038Z,1014.91
2023-05-21T08:51:47.009Z,1014.86
2023-05-21T08:52:47.003Z,1014.90
2023-05-21T08:53:46.982Z,1014.85
2023-05-21T08:54:46.990Z,1014.85
2023-05-21T08:55:46.994Z,1014.80
2023-05-21T08:56:46.969Z,1014.80
2023-05-21T08:57:46.940Z,1014.78
2023-05-21T08:58:46.919Z,1014.81
2023-05-21T08:59:46.898Z,1014.82
2023-05-21T09:00:46.894Z,1014.87
2023-05-21T09:01:46.865Z,1014.87
2023-05-21T09:02:46.891Z,1014.89
2023-05-21T09:03:46.893Z,1014.85
2023-05-21T09:04:46.883Z,1014.84
2023-05-21T09:05:46.846Z,1014.87
2023-05-21T09:06:46.800Z,1014.86
2023-05-21T09:07:46.775Z,1014.88
2023-05-21T09:08:46.776Z,1014.83
2023-05-21T09:09:46.771Z,1014.84
2023-05-21T09:10:46.753Z,1014.84
2023-05-21T09:11:46.749Z,1014.83
2023-05-21T09:12:46.725Z,1014.80
2023-05-21T09:13:46.699Z,1014.83
2023-05-21T09:14:46.728Z,1014.81
2023-05-21T09:15:46.669Z,1014.81
2023-05-21T09:16:46.692Z,1014.80
2023-05-21T09:17:46.709Z,1014.82
2023-05-21T09:18:46.718Z,1014.80
2023-05-21T09:19:46.635Z,1014.80
2023-05-21T09:20:46.613Z,1014.81
2023-05-21T09:21:46.627Z,1014.79
2023-05-21T09:22:46.613Z,1014.78
2023-05-21T09:23:46.610Z,1014.78
2023-05-21T09:24:46.600Z,1014.79
2023-05-21T09:25:46.581Z,1014.65
2023-05-21T09:26:46.548Z,1014.69
2023-05-21T09:27:46.517Z,1014.68
2023-05-21T09:28:46.539Z,1014.69
2023-05-21T09:29:46.504Z,1014.75
2023-05-21T09:30:46.512Z,1014.67
2023-05-21T09:31:46.709Z,1014.68
2023-05-21T09:32:46.530Z,1014.70
2023-05-21T09:33:46.488Z,1014.71
2023-05-21T09:34:46.439Z,1014.77
2023-05-21T09:35:46.425Z,1014.75
2023-05-21T09:36:46.405Z,1014.70
2023-05-21T09:37:46.443Z,1014.76
2023-05-21T09:38:46.416Z,1014.73
2023-05-21T09:39:46.392Z,1014.66
2023-05-21T09:40:46.366Z,1014.66
2023-05-21T09:41:46.367Z,1014.65
2023-05-21T09:42:46.396Z,1014.69
2023-05-21T09:43:46.329Z,1014.70
2023-05-21T09:44:46.331Z,1014.63
2023-05-21T09:45:46.304Z,1014.72
2023-05-21T09:46:46.374Z,1014.70
2023-05-21T09:47:46.303Z,1014.72
2023-05-21T09:48:46.273Z,1014.70
2023-05-21T09:49:46.252Z,1014.67
2023-05-21T09:50:46.240Z,1014.67
2023-05-21T09:51:46.256Z,1014.71
2023-05-21T09:52:46.258Z,1014.69
2023-05-21T09:53:46.186Z,1014.71
2023-05-21T09:54:46.230Z,1014.69
2023-05-21T09:55:46.186Z,1014.69
2023-05-21T09:56:46.184Z,1014.74
2023-05-21T09:57:47.592Z,1014.67
2023-05-21T09:58:46.127Z,1014.75
2023-05-21T09:59:46.111Z,1014.70
2023-05-21T10:00:46.128Z,1014.76
2023-05-21T10:01:46.157Z,1014.73
2023-05-21T10:02:46.138Z,1014.72
2023-05-21T10:03:46.568Z,1014.73
2023-05-21T10:04:46.099Z,1014.69
2023-05-21T10:05:46.048Z,1014.70
2023-05-21T10:06:46.116Z,1014.72
2023-05-21T10:07:46.006Z,1014.69
2023-05-21T10:08:46.013Z,1014.73
2023-05-21T10:09:45.984Z,1014.73
2023-05-21T10:10:46.011Z,1014.75
2023-05-21T10:11:45.978Z,1014.74
2023-05-21T10:12:45.952Z,1014.72
2023-05-21T10:13:45.968Z,1014.69
2023-05-21T10:14:45.961Z,1014.72
2023-05-21T10:15:46.114Z,1014.71
2023-05-21T10:16:46.087Z,1014.69
2023-05-21T10:17:45.952Z,1014.69
2023-05-21T10:18:45.915Z,1014.70
2023-05-21T10:19:45.872Z,1014.69
2023-05-21T10:20:45.875Z,1014.70
2023-05-21T10:21:45.911Z,1014.68
2023-05-21T10:22:45.820Z,1014.68
2023-05-21T10:23:45.811Z,1014.69
2023-05-21T10:24:45.833Z,1014.65
2023-05-21T10:25:45.805Z,1014.67
2023-05-21T10:26:45.782Z,1014.67
2023-05-21T10:27:45.751Z,1014.66
2023-05-21T10:28:45.749Z,1014.61
2023-05-21T10:29:45.792Z,1014.62
2023-05-21T10:30:45.728Z,1014.64
2023-05-21T10:31:45.732Z,1014.58
2023-05-21T10:32:45.921Z,1014.58
2023-05-21T10:33:45.683Z,1014.58
2023-05-21T10:34:45.797Z,1014.61
2023-05-21T10:35:45.663Z,1014.55
2023-05-21T10:36:45.694Z,1014.56
2023-05-21T10:37:45.637Z,1014.59
2023-05-21T10:38:45.654Z,1014.59
2023-05-21T10:39:45.616Z,1014.62
2023-05-21T10:40:45.607Z,1014.55
2023-05-21T10:41:45.576Z,1014.55
2023-05-21T10:42:45.578Z,1014.55
2023-05-21T10:43:45.636Z,1014.60
2023-05-21T10:44:45.581Z,1014.53
2023-05-21T10:45:45.560Z,1014.51
2023-05-21T10:46:45.604Z,1014.53
2023-05-21T10:47:45.521Z,1014.53
2023-05-21T10:48:45.524Z,1014.52
2023-05-21T10:49:45.476Z,1014.57
2023-05-21T10:50:45.542Z,1014.56
2023-05-21T10:51:45.480Z,1014.54
2023-05-21T10:52:45.444Z,1014.54
2023-05-21T10:53:45.440Z,1014.55
2023-05-21T10:54:45.461Z,1014.52
2023-05-21T10:55:45.412Z,1014.55
2023-05-21T10:56:45.384Z,1014.51
2023-05-21T10:57:45.427Z,1014.55
2023-05-21T10:58:45.365Z,1014.54
2023-05-21T10:59:45.460Z,1014.53
2023-05-21T11:00:45.325Z,1014.52
2023-05-21T11:01:45.392Z,1014.54
2023-05-21T11:02:45.387Z,1014.54
2023-05-21T11:03:45.441Z,1014.52
2023-05-21T11:04:45.298Z,1014.55
2023-05-21T11:05:45.279Z,1014.53
2023-05-21T11:06:45.265Z,1014.53
2023-05-21T11:07:45.282Z,1014.50
2023-05-21T11:08:45.392Z,1014.54
2023-05-21T11:09:45.216Z,1014.51
2023-05-21T11:10:45.225Z,1014.49
2023-05-21T11:11:45.310Z,1014.51
2023-05-21T11:12:45.202Z,1014.48
2023-05-21T11:13:45.189Z,1014.49
2023-05-21T11:14:45.150Z,1014.48
2023-05-21T11:15:45.242Z,1014.48
2023-05-21T11:16:45.179Z,1014.48
2023-05-21T11:17:45.177Z,1014.42
2023-05-21T11:18:45.142Z,1014.41
2023-05-21T11:19:45.117Z,1014.47
2023-05-21T11:20:45.167Z,1014.45
2023-05-21T11:21:45.086Z,1014.42
2023-05-21T11:22:45.065Z,1014.47
2023-05-21T11:23:45.033Z,1014.43
2023-05-21T11:24:45.058Z,1014.46
2023-05-21T11:25:45.052Z,1014.45
2023-05-21T11:26:45.026Z,1014.47
2023-05-21T11:27:45.021Z,1014.45
2023-05-21T11:28:44.974Z,1014.45
2023-05-21T11:29:45.006Z,1014.39
2023-05-21T11:30:45.204Z,1014.42
2023-05-21T11:31:44.992Z,1014.41
2023-05-21T11:32:44.945Z,1014.39
2023-05-21T11:33:44.928Z,1014.39
2023-05-21T11:34:44.907Z,1014.38
2023-05-21T11:35:44.912Z,1014.37
2023-05-21T11:36:44.913Z,1014.33
2023-05-21T11:37:44.856Z,1014.41
2023-05-21T11:38:44.892Z,1014.37
2023-05-21T11:39:44.964Z,1014.45
2023-05-21T11:40:44.834Z,1014.39
2023-05-21T11:41:44.843Z,1014.38
2023-05-21T11:42:44.791Z,1014.39
2023-05-21T11:43:44.786Z,1014.40
2023-05-21T11:44:44.810Z,1014.34
2023-05-21T11:45:44.762Z,1014.33
2023-05-21T11:46:44.802Z,1014.32
2023-05-21T11:47:44.824Z,1014.33
2023-05-21T11:48:44.712Z,1014.34
2023-05-21T11:49:44.731Z,1014.34
2023-05-21T11:50:44.749Z,1014.35
2023-05-21T11:51:44.694Z,1014.34
2023-05-21T11:52:44.688Z,1014.30
2023-05-21T11:53:44.724Z,1014.37
2023-05-21T11:54:44.680Z,1014.33
2023-05-21T11:55:44.639Z,1014.33
2023-05-21T11:56:44.625Z,1014.31
2023-05-21T11:57:44.691Z,1014.32
2023-05-21T11:58:44.612Z,1014.31
2023-05-21T11:59:44.602Z,1014.32
2023-05-21T12:00:44.588Z,1014.34
2023-05-21T12:01:44.589Z,1014.28
2023-05-21T12:02:44.621Z,1014.31
2023-05-21T12:03:44.662Z,1014.27
2023-05-21T12:04:44.598Z,1014.28
2023-05-21T12:05:44.689Z,1014.27
2023-05-21T12:06:44.530Z,1014.23
2023-05-21T12:07:44.530Z,1014.26